Freeland, Maryland
Current Conditions -  °F | °C
As of 3:40 AM on Saturday 25 Oct 2014 (Local Time) from KDMW Reporting Station
Clear Clear  
Wind Chill: 50°   Ceiling: Unl
Heat Index: 50°   Visibility: 10mi
Dew Point: 37°   Wind: 6mph
Humidity: 62%   Direction: 270°W
Pressure: 29.94"   Gusts: NA
Location:  39.7°N, 76.68°W
Report Text: KDMW 250740Z AUTO 27005KT 10SM CLR 10/03 A2994 RMK AO2
Loading
Personal Weather Stations






























Interactive Weather Map
Tropical Storm Tracking
New forecast layout! Learn more

10-Day Weather Forecast

Advertisements
Track Severe Weather on mobile